Terminal Aerodrome Forecast
Issued by NWS Portland, OR

Home | Current Version | Previous Version | Text Only | Print | Product List | Glossary On
Versions: 1 2 3 4 5 6 7 8 9 10 11 12 13 14 15 16 17 18 19 20 21 22 23 24 25 26 27
000
FTUS46 KPQR 181132
TAFEUG
TAF
KEUG 181132Z 1812/1912 VRB03KT P6SM VCSH SCT050 OVC090
     FM181500 VRB03KT P6SM VCSH BKN050 OVC090
     FM182000 24005KT P6SM VCSH BKN050 OVC070
     FM190300 VRB03KT P6SM BKN050 OVC070
     FM191100 VRB03KT P6SM BKN025 OVC035=

USA.gov is the U.S. government's official web portal to all federal, state and local government web resources and services.